sensor_id;sensor_type;location;lat;lon;timestamp;noise_LAeq;noise_LA_min;noise_LA_max;noise_LA01;noise_LA95
81493;Laerm;70900;51.798;10.954;2024-01-10T00:01:12;31.37;25.25;42.29;;
81493;Laerm;70900;51.798;10.954;2024-01-10T00:03:37;34.82;25.39;42.64;;
81493;Laerm;70900;51.798;10.954;2024-01-10T00:06:03;32.83;25.87;41.14;;
81493;Laerm;70900;51.798;10.954;2024-01-10T00:08:28;34.24;28.05;42.95;;
81493;Laerm;70900;51.798;10.954;2024-01-10T00:10:54;38.90;28.25;50.75;;
81493;Laerm;70900;51.798;10.954;2024-01-10T00:13:20;34.78;25.92;45.16;;
81493;Laerm;70900;51.798;10.954;2024-01-10T00:15:46;30.91;24.48;42.29;;
81493;Laerm;70900;51.798;10.954;2024-01-10T00:18:11;29.25;24.48;39.96;;
81493;Laerm;70900;51.798;10.954;2024-01-10T00:20:36;27.22;24.59;34.28;;
81493;Laerm;70900;51.798;10.954;2024-01-10T00:23:02;28.35;24.73;36.10;;
81493;Laerm;70900;51.798;10.954;2024-01-10T00:25:28;31.02;25.98;39.52;;
81493;Laerm;70900;51.798;10.954;2024-01-10T00:27:53;32.65;26.70;39.69;;
81493;Laerm;70900;51.798;10.954;2024-01-10T00:30:19;34.35;26.05;46.34;;
81493;Laerm;70900;51.798;10.954;2024-01-10T00:32:44;35.27;30.02;43.54;;
81493;Laerm;70900;51.798;10.954;2024-01-10T00:35:10;32.69;28.44;40.80;;
81493;Laerm;70900;51.798;10.954;2024-01-10T00:37:36;30.75;26.44;41.08;;
81493;Laerm;70900;51.798;10.954;2024-01-10T00:40:01;35.87;29.27;45.12;;
81493;Laerm;70900;51.798;10.954;2024-01-10T00:42:27;34.81;27.57;45.54;;
81493;Laerm;70900;51.798;10.954;2024-01-10T00:44:52;28.76;23.83;37.75;;
81493;Laerm;70900;51.798;10.954;2024-01-10T00:47:18;43.65;26.16;61.01;;
81493;Laerm;70900;51.798;10.954;2024-01-10T00:49:43;34.29;27.31;59.00;;
81493;Laerm;70900;51.798;10.954;2024-01-10T00:52:08;37.29;27.19;61.76;;
81493;Laerm;70900;51.798;10.954;2024-01-10T00:54:34;32.41;27.77;43.10;;
81493;Laerm;70900;51.798;10.954;2024-01-10T00:56:59;31.67;25.78;41.42;;
81493;Laerm;70900;51.798;10.954;2024-01-10T00:59:25;26.49;23.46;37.19;;
81493;Laerm;70900;51.798;10.954;2024-01-10T01:01:50;30.60;25.25;40.93;;
81493;Laerm;70900;51.798;10.954;2024-01-10T01:04:15;30.39;25.14;49.00;;
81493;Laerm;70900;51.798;10.954;2024-01-10T01:06:41;28.27;23.77;40.85;;
81493;Laerm;70900;51.798;10.954;2024-01-10T01:09:06;30.47;24.61;36.96;;
81493;Laerm;70900;51.798;10.954;2024-01-10T01:11:32;31.41;25.58;44.47;;
81493;Laerm;70900;51.798;10.954;2024-01-10T01:13:58;34.95;25.25;45.97;;
81493;Laerm;70900;51.798;10.954;2024-01-10T01:16:23;30.99;25.56;40.43;;
81493;Laerm;70900;51.798;10.954;2024-01-10T01:18:48;28.19;24.39;34.08;;
81493;Laerm;70900;51.798;10.954;2024-01-10T01:21:14;35.35;27.26;50.38;;
81493;Laerm;70900;51.798;10.954;2024-01-10T01:23:39;31.34;25.36;42.01;;
81493;Laerm;70900;51.798;10.954;2024-01-10T01:26:05;31.30;25.14;41.16;;
81493;Laerm;70900;51.798;10.954;2024-01-10T01:28:30;33.99;25.94;45.85;;
81493;Laerm;70900;51.798;10.954;2024-01-10T01:30:55;31.89;26.38;39.05;;
81493;Laerm;70900;51.798;10.954;2024-01-10T01:33:21;31.06;24.41;42.71;;
81493;Laerm;70900;51.798;10.954;2024-01-10T01:35:46;28.78;25.04;35.33;;
81493;Laerm;70900;51.798;10.954;2024-01-10T01:38:11;30.94;25.40;44.02;;
81493;Laerm;70900;51.798;10.954;2024-01-10T01:40:37;35.23;28.41;43.50;;
81493;Laerm;70900;51.798;10.954;2024-01-10T01:43:17;35.91;28.20;47.65;;
81493;Laerm;70900;51.798;10.954;2024-01-10T01:45:42;35.85;27.04;47.37;;
81493;Laerm;70900;51.798;10.954;2024-01-10T01:48:08;37.72;24.38;49.74;;
81493;Laerm;70900;51.798;10.954;2024-01-10T01:50:33;30.97;24.77;40.86;;
81493;Laerm;70900;51.798;10.954;2024-01-10T01:52:59;29.22;24.80;37.25;;
81493;Laerm;70900;51.798;10.954;2024-01-10T01:55:24;37.37;25.93;48.21;;
81493;Laerm;70900;51.798;10.954;2024-01-10T01:57:49;37.62;28.53;48.45;;
81493;Laerm;70900;51.798;10.954;2024-01-10T02:00:15;40.06;25.64;48.78;;
81493;Laerm;70900;51.798;10.954;2024-01-10T02:02:40;33.07;26.43;43.02;;
81493;Laerm;70900;51.798;10.954;2024-01-10T02:05:07;38.75;29.22;47.70;;
81493;Laerm;70900;51.798;10.954;2024-01-10T02:07:32;37.31;27.72;45.66;;
81493;Laerm;70900;51.798;10.954;2024-01-10T02:09:57;36.09;27.82;45.61;;
81493;Laerm;70900;51.798;10.954;2024-01-10T02:12:23;37.40;26.83;47.71;;
81493;Laerm;70900;51.798;10.954;2024-01-10T02:14:49;38.02;31.40;46.93;;
81493;Laerm;70900;51.798;10.954;2024-01-10T02:17:14;35.03;26.66;41.39;;
81493;Laerm;70900;51.798;10.954;2024-01-10T02:19:40;31.70;26.71;42.97;;
81493;Laerm;70900;51.798;10.954;2024-01-10T02:22:05;30.40;27.15;41.08;;
81493;Laerm;70900;51.798;10.954;2024-01-10T02:24:31;35.57;27.64;44.16;;
81493;Laerm;70900;51.798;10.954;2024-01-10T02:26:56;37.33;30.37;45.07;;
81493;Laerm;70900;51.798;10.954;2024-01-10T02:29:21;39.01;31.81;46.24;;
81493;Laerm;70900;51.798;10.954;2024-01-10T02:31:49;44.87;31.24;61.98;;
81493;Laerm;70900;51.798;10.954;2024-01-10T02:34:14;36.86;26.96;44.98;;
81493;Laerm;70900;51.798;10.954;2024-01-10T02:36:39;36.15;26.81;50.33;;
81493;Laerm;70900;51.798;10.954;2024-01-10T02:39:05;38.50;29.23;49.43;;
81493;Laerm;70900;51.798;10.954;2024-01-10T02:41:31;35.52;29.51;42.74;;
81493;Laerm;70900;51.798;10.954;2024-01-10T02:43:57;37.02;29.84;44.99;;
81493;Laerm;70900;51.798;10.954;2024-01-10T02:46:24;53.56;29.97;71.96;;
81493;Laerm;70900;51.798;10.954;2024-01-10T02:48:52;35.72;27.55;45.41;;
81493;Laerm;70900;51.798;10.954;2024-01-10T02:51:18;34.65;27.23;46.76;;
81493;Laerm;70900;51.798;10.954;2024-01-10T02:53:43;37.59;29.51;45.90;;
81493;Laerm;70900;51.798;10.954;2024-01-10T02:56:09;37.38;28.21;46.77;;
81493;Laerm;70900;51.798;10.954;2024-01-10T02:58:34;39.75;31.92;48.05;;
81493;Laerm;70900;51.798;10.954;2024-01-10T03:01:00;40.34;32.18;49.89;;
81493;Laerm;70900;51.798;10.954;2024-01-10T03:03:26;41.19;27.28;50.61;;
81493;Laerm;70900;51.798;10.954;2024-01-10T03:05:51;38.88;30.04;46.77;;
81493;Laerm;70900;51.798;10.954;2024-01-10T03:08:17;42.27;30.06;51.55;;
81493;Laerm;70900;51.798;10.954;2024-01-10T03:10:42;40.01;29.10;50.77;;
81493;Laerm;70900;51.798;10.954;2024-01-10T03:13:08;39.86;31.59;45.83;;
81493;Laerm;70900;51.798;10.954;2024-01-10T03:15:33;49.07;35.34;65.56;;
81493;Laerm;70900;51.798;10.954;2024-01-10T03:17:58;37.31;30.15;44.18;;
81493;Laerm;70900;51.798;10.954;2024-01-10T03:20:24;36.01;29.04;42.78;;
81493;Laerm;70900;51.798;10.954;2024-01-10T03:22:49;34.79;30.41;39.51;;
81493;Laerm;70900;51.798;10.954;2024-01-10T03:25:14;37.22;31.64;43.05;;
81493;Laerm;70900;51.798;10.954;2024-01-10T03:27:40;38.67;30.74;45.28;;
81493;Laerm;70900;51.798;10.954;2024-01-10T03:30:06;38.41;30.62;45.42;;
81493;Laerm;70900;51.798;10.954;2024-01-10T03:32:31;49.74;30.63;67.76;;
81493;Laerm;70900;51.798;10.954;2024-01-10T03:34:57;38.60;33.02;47.12;;
81493;Laerm;70900;51.798;10.954;2024-01-10T03:37:22;38.68;33.77;44.75;;
81493;Laerm;70900;51.798;10.954;2024-01-10T03:39:48;38.13;33.16;43.58;;
81493;Laerm;70900;51.798;10.954;2024-01-10T03:42:13;40.47;34.68;59.32;;
81493;Laerm;70900;51.798;10.954;2024-01-10T03:44:40;38.24;33.96;42.89;;
81493;Laerm;70900;51.798;10.954;2024-01-10T03:47:06;37.58;33.38;44.17;;
81493;Laerm;70900;51.798;10.954;2024-01-10T03:49:31;40.76;33.83;50.78;;
81493;Laerm;70900;51.798;10.954;2024-01-10T03:51:57;38.96;33.44;46.92;;
81493;Laerm;70900;51.798;10.954;2024-01-10T03:54:22;39.87;34.04;48.61;;
81493;Laerm;70900;51.798;10.954;2024-01-10T03:56:47;38.97;34.23;46.16;;
81493;Laerm;70900;51.798;10.954;2024-01-10T03:59:13;39.60;34.72;44.59;;
81493;Laerm;70900;51.798;10.954;2024-01-10T04:01:38;53.15;33.07;69.56;;
81493;Laerm;70900;51.798;10.954;2024-01-10T04:04:04;40.18;34.48;47.99;;
81493;Laerm;70900;51.798;10.954;2024-01-10T04:06:30;40.97;34.28;50.56;;
81493;Laerm;70900;51.798;10.954;2024-01-10T04:08:55;39.04;33.35;48.58;;
81493;Laerm;70900;51.798;10.954;2024-01-10T04:11:20;39.28;34.19;45.93;;
81493;Laerm;70900;51.798;10.954;2024-01-10T04:13:46;41.27;35.16;54.89;;
81493;Laerm;70900;51.798;10.954;2024-01-10T04:16:11;44.92;38.43;64.73;;
81493;Laerm;70900;51.798;10.954;2024-01-10T04:18:37;52.91;36.78;66.23;;
81493;Laerm;70900;51.798;10.954;2024-01-10T04:21:02;50.45;39.35;69.39;;
81493;Laerm;70900;51.798;10.954;2024-01-10T04:23:28;49.29;35.61;64.25;;
81493;Laerm;70900;51.798;10.954;2024-01-10T04:25:53;41.49;36.17;57.75;;
81493;Laerm;70900;51.798;10.954;2024-01-10T04:28:19;42.31;37.60;59.23;;
81493;Laerm;70900;51.798;10.954;2024-01-10T04:30:44;51.04;38.02;66.78;;
81493;Laerm;70900;51.798;10.954;2024-01-10T04:33:10;43.83;36.90;59.09;;
81493;Laerm;70900;51.798;10.954;2024-01-10T04:35:35;42.77;37.75;54.70;;
81493;Laerm;70900;51.798;10.954;2024-01-10T04:38:01;48.46;36.51;63.18;;
81493;Laerm;70900;51.798;10.954;2024-01-10T04:40:26;49.56;37.65;64.44;;
81493;Laerm;70900;51.798;10.954;2024-01-10T04:42:51;49.17;38.38;65.29;;
81493;Laerm;70900;51.798;10.954;2024-01-10T04:45:17;43.71;38.11;51.12;;
81493;Laerm;70900;51.798;10.954;2024-01-10T04:47:42;53.87;40.42;67.11;;
81493;Laerm;70900;51.798;10.954;2024-01-10T04:50:10;46.09;40.89;55.87;;
81493;Laerm;70900;51.798;10.954;2024-01-10T04:52:35;44.84;39.15;52.59;;
81493;Laerm;70900;51.798;10.954;2024-01-10T04:55:01;46.40;40.57;52.65;;
81493;Laerm;70900;51.798;10.954;2024-01-10T04:57:28;52.30;41.02;73.53;;
81493;Laerm;70900;51.798;10.954;2024-01-10T04:59:53;51.64;41.18;64.44;;
81493;Laerm;70900;51.798;10.954;2024-01-10T05:02:19;49.27;40.01;63.97;;
81493;Laerm;70900;51.798;10.954;2024-01-10T05:04:44;46.14;39.55;67.08;;
81493;Laerm;70900;51.798;10.954;2024-01-10T05:07:10;51.70;41.52;66.45;;
81493;Laerm;70900;51.798;10.954;2024-01-10T05:09:36;48.02;44.60;56.10;;
81493;Laerm;70900;51.798;10.954;2024-01-10T05:12:01;47.51;43.52;59.24;;
81493;Laerm;70900;51.798;10.954;2024-01-10T05:14:26;46.04;42.00;60.53;;
81493;Laerm;70900;51.798;10.954;2024-01-10T05:16:52;46.65;42.29;52.83;;
81493;Laerm;70900;51.798;10.954;2024-01-10T05:19:18;54.67;42.55;66.58;;
81493;Laerm;70900;51.798;10.954;2024-01-10T05:21:44;55.93;49.08;67.62;;
81493;Laerm;70900;51.798;10.954;2024-01-10T05:24:09;57.87;48.15;72.03;;
81493;Laerm;70900;51.798;10.954;2024-01-10T05:26:35;54.27;43.45;67.41;;
81493;Laerm;70900;51.798;10.954;2024-01-10T05:29:00;57.24;48.16;69.91;;
81493;Laerm;70900;51.798;10.954;2024-01-10T05:31:26;58.04;46.87;69.13;;
81493;Laerm;70900;51.798;10.954;2024-01-10T05:33:51;57.78;47.27;70.78;;
81493;Laerm;70900;51.798;10.954;2024-01-10T05:36:21;56.29;46.92;69.18;;
81493;Laerm;70900;51.798;10.954;2024-01-10T05:38:47;53.68;46.91;65.30;;
81493;Laerm;70900;51.798;10.954;2024-01-10T05:41:13;56.10;41.45;73.13;;
81493;Laerm;70900;51.798;10.954;2024-01-10T05:43:39;56.74;42.87;70.68;;
81493;Laerm;70900;51.798;10.954;2024-01-10T05:46:05;56.43;42.56;66.98;;
81493;Laerm;70900;51.798;10.954;2024-01-10T05:48:30;50.27;43.48;64.42;;
81493;Laerm;70900;51.798;10.954;2024-01-10T05:50:55;50.92;43.37;65.21;;
81493;Laerm;70900;51.798;10.954;2024-01-10T05:53:23;56.40;44.31;72.40;;
81493;Laerm;70900;51.798;10.954;2024-01-10T05:55:48;55.12;44.07;72.19;;
81493;Laerm;70900;51.798;10.954;2024-01-10T05:58:14;45.65;41.30;58.38;;
81493;Laerm;70900;51.798;10.954;2024-01-10T06:00:39;56.30;41.32;70.59;;
81493;Laerm;70900;51.798;10.954;2024-01-10T06:03:05;53.98;42.68;66.58;;
81493;Laerm;70900;51.798;10.954;2024-01-10T06:05:30;54.75;39.91;69.79;;
81493;Laerm;70900;51.798;10.954;2024-01-10T06:07:58;54.74;42.07;66.84;;
81493;Laerm;70900;51.798;10.954;2024-01-10T06:10:24;58.92;41.72;73.29;;
81493;Laerm;70900;51.798;10.954;2024-01-10T06:12:49;58.14;44.22;69.85;;
81493;Laerm;70900;51.798;10.954;2024-01-10T06:15:15;56.61;40.36;71.30;;
81493;Laerm;70900;51.798;10.954;2024-01-10T06:17:40;54.47;43.71;66.46;;
81493;Laerm;70900;51.798;10.954;2024-01-10T06:20:06;60.89;41.10;73.78;;
81493;Laerm;70900;51.798;10.954;2024-01-10T06:22:32;63.39;43.92;80.34;;
81493;Laerm;70900;51.798;10.954;2024-01-10T06:24:58;61.55;45.14;72.96;;
81493;Laerm;70900;51.798;10.954;2024-01-10T06:27:23;59.81;43.97;68.36;;
81493;Laerm;70900;51.798;10.954;2024-01-10T06:29:48;56.37;41.22;68.32;;
81493;Laerm;70900;51.798;10.954;2024-01-10T06:32:14;60.02;41.93;78.83;;
81493;Laerm;70900;51.798;10.954;2024-01-10T06:34:39;60.88;41.52;76.29;;
81493;Laerm;70900;51.798;10.954;2024-01-10T06:37:05;59.12;41.79;69.95;;
81493;Laerm;70900;51.798;10.954;2024-01-10T06:39:32;54.77;40.76;71.10;;
81493;Laerm;70900;51.798;10.954;2024-01-10T06:41:58;55.79;41.13;72.90;;
81493;Laerm;70900;51.798;10.954;2024-01-10T06:44:24;54.13;42.36;68.30;;
81493;Laerm;70900;51.798;10.954;2024-01-10T06:46:49;56.81;42.05;70.53;;
81493;Laerm;70900;51.798;10.954;2024-01-10T06:49:14;54.35;41.09;70.31;;
81493;Laerm;70900;51.798;10.954;2024-01-10T06:51:40;53.38;42.63;66.23;;
81493;Laerm;70900;51.798;10.954;2024-01-10T06:54:06;59.13;43.84;74.82;;
81493;Laerm;70900;51.798;10.954;2024-01-10T06:56:31;57.70;42.83;70.39;;
81493;Laerm;70900;51.798;10.954;2024-01-10T06:58:57;57.28;41.88;69.49;;
81493;Laerm;70900;51.798;10.954;2024-01-10T07:01:23;57.83;41.80;72.68;;
81493;Laerm;70900;51.798;10.954;2024-01-10T07:03:49;50.20;41.00;63.24;;
81493;Laerm;70900;51.798;10.954;2024-01-10T07:06:14;51.25;41.16;66.55;;
81493;Laerm;70900;51.798;10.954;2024-01-10T07:08:40;56.95;39.18;70.64;;
81493;Laerm;70900;51.798;10.954;2024-01-10T07:11:05;53.57;39.84;69.03;;
81493;Laerm;70900;51.798;10.954;2024-01-10T07:13:31;51.99;38.55;66.22;;
81493;Laerm;70900;51.798;10.954;2024-01-10T07:15:57;44.78;39.31;53.41;;
81493;Laerm;70900;51.798;10.954;2024-01-10T07:18:22;58.95;42.46;72.90;;
81493;Laerm;70900;51.798;10.954;2024-01-10T07:20:47;56.58;42.30;73.09;;
81493;Laerm;70900;51.798;10.954;2024-01-10T07:23:13;58.35;38.71;72.71;;
81493;Laerm;70900;51.798;10.954;2024-01-10T07:25:38;56.08;42.66;72.11;;
81493;Laerm;70900;51.798;10.954;2024-01-10T07:28:04;53.15;39.72;64.81;;
81493;Laerm;70900;51.798;10.954;2024-01-10T07:30:29;55.31;39.72;67.91;;
81493;Laerm;70900;51.798;10.954;2024-01-10T07:32:58;56.29;40.50;70.92;;
81493;Laerm;70900;51.798;10.954;2024-01-10T07:35:23;58.60;41.31;75.67;;
81493;Laerm;70900;51.798;10.954;2024-01-10T07:37:49;58.17;41.37;69.42;;
81493;Laerm;70900;51.798;10.954;2024-01-10T07:40:14;56.15;40.78;71.29;;
81493;Laerm;70900;51.798;10.954;2024-01-10T07:42:40;56.73;40.98;73.38;;
81493;Laerm;70900;51.798;10.954;2024-01-10T07:45:05;49.09;41.35;62.28;;
81493;Laerm;70900;51.798;10.954;2024-01-10T07:47:31;56.51;40.74;71.06;;
81493;Laerm;70900;51.798;10.954;2024-01-10T07:49:57;50.61;41.21;66.30;;
81493;Laerm;70900;51.798;10.954;2024-01-10T07:52:22;55.66;40.83;67.35;;
81493;Laerm;70900;51.798;10.954;2024-01-10T07:54:47;55.56;41.44;69.72;;
81493;Laerm;70900;51.798;10.954;2024-01-10T07:57:13;45.84;40.79;58.64;;
81493;Laerm;70900;51.798;10.954;2024-01-10T07:59:38;53.62;40.70;68.49;;
81493;Laerm;70900;51.798;10.954;2024-01-10T08:02:04;58.65;41.60;72.58;;
81493;Laerm;70900;51.798;10.954;2024-01-10T08:04:29;55.97;38.72;69.25;;
81493;Laerm;70900;51.798;10.954;2024-01-10T08:06:54;64.25;39.78;82.49;;
81493;Laerm;70900;51.798;10.954;2024-01-10T08:09:21;53.19;40.73;66.60;;
81493;Laerm;70900;51.798;10.954;2024-01-10T08:11:46;46.42;39.29;58.38;;
81493;Laerm;70900;51.798;10.954;2024-01-10T08:14:12;49.17;40.36;63.83;;
81493;Laerm;70900;51.798;10.954;2024-01-10T08:16:38;53.79;39.09;65.36;;
81493;Laerm;70900;51.798;10.954;2024-01-10T08:19:03;51.40;37.81;68.02;;
81493;Laerm;70900;51.798;10.954;2024-01-10T08:21:28;54.11;39.45;69.11;;
81493;Laerm;70900;51.798;10.954;2024-01-10T08:23:54;60.31;38.38;75.37;;
81493;Laerm;70900;51.798;10.954;2024-01-10T08:26:19;56.60;37.90;70.14;;
81493;Laerm;70900;51.798;10.954;2024-01-10T08:28:45;52.87;38.60;65.88;;
81493;Laerm;70900;51.798;10.954;2024-01-10T08:31:10;55.51;38.21;67.76;;
81493;Laerm;70900;51.798;10.954;2024-01-10T08:33:38;59.59;38.12;75.95;;
81493;Laerm;70900;51.798;10.954;2024-01-10T08:36:04;52.99;39.49;64.46;;
81493;Laerm;70900;51.798;10.954;2024-01-10T08:38:30;55.85;39.44;68.34;;
81493;Laerm;70900;51.798;10.954;2024-01-10T08:40:56;59.63;38.21;76.23;;
81493;Laerm;70900;51.798;10.954;2024-01-10T08:43:21;55.74;39.05;69.07;;
81493;Laerm;70900;51.798;10.954;2024-01-10T08:45:47;55.30;38.82;69.89;;
81493;Laerm;70900;51.798;10.954;2024-01-10T08:48:12;58.36;38.31;70.54;;
81493;Laerm;70900;51.798;10.954;2024-01-10T08:50:38;57.29;40.55;70.66;;
81493;Laerm;70900;51.798;10.954;2024-01-10T08:53:04;53.95;41.36;69.07;;
81493;Laerm;70900;51.798;10.954;2024-01-10T08:55:31;59.23;40.07;71.29;;
81493;Laerm;70900;51.798;10.954;2024-01-10T08:57:56;55.21;38.89;71.82;;
81493;Laerm;70900;51.798;10.954;2024-01-10T09:00:21;59.88;41.04;73.01;;
81493;Laerm;70900;51.798;10.954;2024-01-10T09:02:47;61.81;43.53;75.21;;
81493;Laerm;70900;51.798;10.954;2024-01-10T09:05:12;56.24;38.95;69.37;;
81493;Laerm;70900;51.798;10.954;2024-01-10T09:07:38;57.57;37.40;72.51;;
81493;Laerm;70900;51.798;10.954;2024-01-10T09:10:04;55.52;37.06;73.11;;
81493;Laerm;70900;51.798;10.954;2024-01-10T09:12:30;55.50;38.53;70.47;;
81493;Laerm;70900;51.798;10.954;2024-01-10T09:14:56;56.09;39.23;69.51;;
81493;Laerm;70900;51.798;10.954;2024-01-10T09:17:21;59.96;44.54;72.91;;
81493;Laerm;70900;51.798;10.954;2024-01-10T09:19:47;55.22;42.01;68.21;;
81493;Laerm;70900;51.798;10.954;2024-01-10T09:22:12;57.20;41.97;68.69;;
81493;Laerm;70900;51.798;10.954;2024-01-10T09:24:38;58.45;41.71;71.02;;
81493;Laerm;70900;51.798;10.954;2024-01-10T09:27:04;56.77;38.00;69.52;;
81493;Laerm;70900;51.798;10.954;2024-01-10T09:29:29;54.04;37.53;68.52;;
81493;Laerm;70900;51.798;10.954;2024-01-10T09:31:56;50.05;37.60;68.11;;
81493;Laerm;70900;51.798;10.954;2024-01-10T09:34:22;59.80;38.63;71.52;;
81493;Laerm;70900;51.798;10.954;2024-01-10T09:36:47;57.47;38.95;75.42;;
81493;Laerm;70900;51.798;10.954;2024-01-10T09:39:13;54.82;36.60;65.93;;
81493;Laerm;70900;51.798;10.954;2024-01-10T09:41:44;58.19;37.77;70.08;;
81493;Laerm;70900;51.798;10.954;2024-01-10T09:44:11;56.52;39.43;69.96;;
81493;Laerm;70900;51.798;10.954;2024-01-10T09:46:36;55.70;36.89;71.49;;
81493;Laerm;70900;51.798;10.954;2024-01-10T09:49:04;53.62;38.37;68.80;;
81493;Laerm;70900;51.798;10.954;2024-01-10T09:51:29;60.70;41.24;71.55;;
81493;Laerm;70900;51.798;10.954;2024-01-10T09:53:57;55.12;38.78;68.69;;
81493;Laerm;70900;51.798;10.954;2024-01-10T09:56:23;49.52;37.76;65.08;;
81493;Laerm;70900;51.798;10.954;2024-01-10T09:58:48;55.08;37.09;66.77;;
81493;Laerm;70900;51.798;10.954;2024-01-10T10:01:14;58.13;36.96;72.83;;
81493;Laerm;70900;51.798;10.954;2024-01-10T10:03:40;56.16;37.13;67.81;;
81493;Laerm;70900;51.798;10.954;2024-01-10T10:06:07;56.65;36.02;68.15;;
81493;Laerm;70900;51.798;10.954;2024-01-10T10:08:33;50.82;35.34;65.38;;
81493;Laerm;70900;51.798;10.954;2024-01-10T10:10:58;55.89;36.12;71.36;;
81493;Laerm;70900;51.798;10.954;2024-01-10T10:13:24;57.64;37.22;73.56;;
81493;Laerm;70900;51.798;10.954;2024-01-10T10:16:00;59.30;39.28;71.52;;
81493;Laerm;70900;51.798;10.954;2024-01-10T10:18:26;54.94;39.49;65.98;;
81493;Laerm;70900;51.798;10.954;2024-01-10T10:21:07;58.89;37.93;77.58;;
81493;Laerm;70900;51.798;10.954;2024-01-10T10:23:34;52.99;37.81;67.99;;
81493;Laerm;70900;51.798;10.954;2024-01-10T10:26:01;59.33;37.12;71.80;;
81493;Laerm;70900;51.798;10.954;2024-01-10T10:28:34;56.16;38.66;70.58;;
81493;Laerm;70900;51.798;10.954;2024-01-10T10:31:00;51.91;35.47;68.27;;
81493;Laerm;70900;51.798;10.954;2024-01-10T10:33:25;60.67;35.93;76.23;;
81493;Laerm;70900;51.798;10.954;2024-01-10T10:35:51;57.84;37.94;71.07;;
81493;Laerm;70900;51.798;10.954;2024-01-10T10:38:16;55.94;39.76;68.45;;
81493;Laerm;70900;51.798;10.954;2024-01-10T10:40:41;57.19;39.48;72.57;;
81493;Laerm;70900;51.798;10.954;2024-01-10T10:43:09;55.42;37.63;68.95;;
81493;Laerm;70900;51.798;10.954;2024-01-10T10:45:38;58.50;39.70;70.99;;
81493;Laerm;70900;51.798;10.954;2024-01-10T10:48:04;56.45;38.31;69.44;;
81493;Laerm;70900;51.798;10.954;2024-01-10T10:50:33;57.18;38.98;70.60;;
81493;Laerm;70900;51.798;10.954;2024-01-10T10:53:00;56.55;38.42;68.80;;
81493;Laerm;70900;51.798;10.954;2024-01-10T10:55:27;50.69;36.34;67.78;;
81493;Laerm;70900;51.798;10.954;2024-01-10T10:57:54;56.95;35.48;70.53;;
81493;Laerm;70900;51.798;10.954;2024-01-10T11:00:21;56.65;35.96;67.77;;
81493;Laerm;70900;51.798;10.954;2024-01-10T11:02:55;51.92;39.68;66.05;;
81493;Laerm;70900;51.798;10.954;2024-01-10T11:05:22;57.86;39.87;74.16;;
81493;Laerm;70900;51.798;10.954;2024-01-10T11:07:47;57.71;36.82;69.54;;
81493;Laerm;70900;51.798;10.954;2024-01-10T11:10:14;49.13;36.63;63.08;;
81493;Laerm;70900;51.798;10.954;2024-01-10T11:12:53;56.35;37.60;68.75;;
81493;Laerm;70900;51.798;10.954;2024-01-10T11:17:53;52.94;37.12;67.77;;
81493;Laerm;70900;51.798;10.954;2024-01-10T11:25:41;51.03;33.56;68.02;;
81493;Laerm;70900;51.798;10.954;2024-01-10T11:28:07;60.37;38.54;77.89;;
81493;Laerm;70900;51.798;10.954;2024-01-10T11:30:35;52.79;36.58;69.81;;
81493;Laerm;70900;51.798;10.954;2024-01-10T11:36:05;57.95;38.93;73.85;;
81493;Laerm;70900;51.798;10.954;2024-01-10T11:38:29;58.67;37.43;72.71;;
81493;Laerm;70900;51.798;10.954;2024-01-10T11:40:54;56.66;39.02;71.07;;
81493;Laerm;70900;51.798;10.954;2024-01-10T11:43:22;55.73;36.33;71.02;;
81493;Laerm;70900;51.798;10.954;2024-01-10T11:46:05;56.17;36.18;68.94;;
81493;Laerm;70900;51.798;10.954;2024-01-10T11:48:32;56.13;37.39;70.16;;
81493;Laerm;70900;51.798;10.954;2024-01-10T11:50:58;60.81;41.97;77.15;;
81493;Laerm;70900;51.798;10.954;2024-01-10T11:53:42;51.93;36.14;65.48;;
81493;Laerm;70900;51.798;10.954;2024-01-10T11:56:14;58.46;36.23;70.72;;
81493;Laerm;70900;51.798;10.954;2024-01-10T11:58:57;48.55;35.96;64.49;;
81493;Laerm;70900;51.798;10.954;2024-01-10T12:01:26;56.08;38.35;70.71;;
81493;Laerm;70900;51.798;10.954;2024-01-10T12:03:52;56.80;38.35;69.95;;
81493;Laerm;70900;51.798;10.954;2024-01-10T12:06:21;60.87;37.53;78.20;;
81493;Laerm;70900;51.798;10.954;2024-01-10T12:08:46;55.37;37.67;70.97;;
81493;Laerm;70900;51.798;10.954;2024-01-10T12:11:12;52.01;38.27;65.57;;
81493;Laerm;70900;51.798;10.954;2024-01-10T12:13:37;54.79;39.44;67.50;;
81493;Laerm;70900;51.798;10.954;2024-01-10T12:16:03;56.86;38.42;79.68;;
81493;Laerm;70900;51.798;10.954;2024-01-10T12:18:28;48.03;37.65;62.39;;
81493;Laerm;70900;51.798;10.954;2024-01-10T12:20:54;53.28;39.42;69.68;;
81493;Laerm;70900;51.798;10.954;2024-01-10T12:23:19;49.42;39.48;66.93;;
81493;Laerm;70900;51.798;10.954;2024-01-10T12:25:45;55.89;39.56;69.65;;
81493;Laerm;70900;51.798;10.954;2024-01-10T12:28:15;55.33;39.71;71.90;;
81493;Laerm;70900;51.798;10.954;2024-01-10T12:30:40;65.23;39.92;83.14;;
81493;Laerm;70900;51.798;10.954;2024-01-10T12:33:06;56.27;37.52;73.72;;
81493;Laerm;70900;51.798;10.954;2024-01-10T12:35:33;62.67;38.42;78.08;;
81493;Laerm;70900;51.798;10.954;2024-01-10T12:37:59;59.32;43.15;70.63;;
81493;Laerm;70900;51.798;10.954;2024-01-10T12:40:24;48.61;38.21;60.96;;
81493;Laerm;70900;51.798;10.954;2024-01-10T12:43:01;50.81;39.41;64.51;;
81493;Laerm;70900;51.798;10.954;2024-01-10T12:45:26;54.07;40.55;68.09;;
81493;Laerm;70900;51.798;10.954;2024-01-10T12:47:55;57.49;39.91;70.53;;
81493;Laerm;70900;51.798;10.954;2024-01-10T12:50:20;58.23;38.95;72.29;;
81493;Laerm;70900;51.798;10.954;2024-01-10T12:52:45;58.14;39.16;75.98;;
81493;Laerm;70900;51.798;10.954;2024-01-10T12:55:11;60.04;39.54;84.60;;
81493;Laerm;70900;51.798;10.954;2024-01-10T12:57:37;58.94;40.43;70.63;;
81493;Laerm;70900;51.798;10.954;2024-01-10T13:00:03;51.96;38.31;67.69;;
81493;Laerm;70900;51.798;10.954;2024-01-10T13:02:32;42.40;36.36;58.85;;
81493;Laerm;70900;51.798;10.954;2024-01-10T13:05:00;43.68;36.58;58.26;;
81493;Laerm;70900;51.798;10.954;2024-01-10T13:07:25;54.41;36.63;66.06;;
81493;Laerm;70900;51.798;10.954;2024-01-10T13:09:52;59.59;37.77;76.28;;
81493;Laerm;70900;51.798;10.954;2024-01-10T13:12:19;57.96;38.34;70.86;;
81493;Laerm;70900;51.798;10.954;2024-01-10T13:14:45;63.71;41.55;87.53;;
81493;Laerm;70900;51.798;10.954;2024-01-10T13:17:11;56.21;37.89;72.23;;
81493;Laerm;70900;51.798;10.954;2024-01-10T13:19:36;43.04;37.52;59.66;;
81493;Laerm;70900;51.798;10.954;2024-01-10T13:22:02;53.34;38.34;69.71;;
81493;Laerm;70900;51.798;10.954;2024-01-10T13:24:28;54.03;38.50;67.75;;
81493;Laerm;70900;51.798;10.954;2024-01-10T13:26:55;61.72;36.80;82.90;;
81493;Laerm;70900;51.798;10.954;2024-01-10T13:29:20;47.19;37.64;60.36;;
81493;Laerm;70900;51.798;10.954;2024-01-10T13:31:45;47.65;36.33;62.87;;
81493;Laerm;70900;51.798;10.954;2024-01-10T13:34:13;56.33;40.06;72.14;;
81493;Laerm;70900;51.798;10.954;2024-01-10T13:36:38;57.76;37.21;72.25;;